sensor_id;sensor_type;location;lat;lon;timestamp;temperature;humidity
1011;DHT22;494;48.744;10.106;2024-03-08T00:02:18;3.60;1.00
1011;DHT22;494;48.744;10.106;2024-03-08T00:04:47;3.60;1.00
1011;DHT22;494;48.744;10.106;2024-03-08T00:07:17;3.40;1.00
1011;DHT22;494;48.744;10.106;2024-03-08T00:09:46;3.30;1.00
1011;DHT22;494;48.744;10.106;2024-03-08T00:12:15;3.30;1.00
1011;DHT22;494;48.744;10.106;2024-03-08T00:14:44;3.40;1.00
1011;DHT22;494;48.744;10.106;2024-03-08T00:17:13;3.40;1.00
1011;DHT22;494;48.744;10.106;2024-03-08T00:19:43;3.40;1.00
1011;DHT22;494;48.744;10.106;2024-03-08T00:22:14;3.60;1.00
1011;DHT22;494;48.744;10.106;2024-03-08T00:24:45;3.30;1.00
1011;DHT22;494;48.744;10.106;2024-03-08T00:27:13;3.30;1.00
1011;DHT22;494;48.744;10.106;2024-03-08T00:29:43;3.30;1.00
1011;DHT22;494;48.744;10.106;2024-03-08T00:32:12;3.40;1.00
1011;DHT22;494;48.744;10.106;2024-03-08T00:34:42;3.40;1.00
1011;DHT22;494;48.744;10.106;2024-03-08T00:37:17;3.30;1.00
1011;DHT22;494;48.744;10.106;2024-03-08T00:39:46;3.50;1.00
1011;DHT22;494;48.744;10.106;2024-03-08T00:42:18;3.40;1.00
1011;DHT22;494;48.744;10.106;2024-03-08T00:44:47;3.50;1.00
1011;DHT22;494;48.744;10.106;2024-03-08T00:47:19;3.50;1.00
1011;DHT22;494;48.744;10.106;2024-03-08T00:49:49;3.80;1.00
1011;DHT22;494;48.744;10.106;2024-03-08T00:52:19;3.50;1.00
1011;DHT22;494;48.744;10.106;2024-03-08T00:54:48;3.60;1.00
1011;DHT22;494;48.744;10.106;2024-03-08T00:57:19;3.60;1.00
1011;DHT22;494;48.744;10.106;2024-03-08T00:59:50;3.70;1.00
1011;DHT22;494;48.744;10.106;2024-03-08T01:02:19;3.70;1.00
1011;DHT22;494;48.744;10.106;2024-03-08T01:04:50;3.70;1.00
1011;DHT22;494;48.744;10.106;2024-03-08T01:07:29;3.80;1.00
1011;DHT22;494;48.744;10.106;2024-03-08T01:09:57;3.80;1.00
1011;DHT22;494;48.744;10.106;2024-03-08T01:12:28;3.90;1.00
1011;DHT22;494;48.744;10.106;2024-03-08T01:14:59;3.70;1.00
1011;DHT22;494;48.744;10.106;2024-03-08T01:17:28;3.70;1.00
1011;DHT22;494;48.744;10.106;2024-03-08T01:19:58;3.60;1.00
1011;DHT22;494;48.744;10.106;2024-03-08T01:22:30;3.70;1.00
1011;DHT22;494;48.744;10.106;2024-03-08T01:24:59;3.90;1.00
1011;DHT22;494;48.744;10.106;2024-03-08T01:27:28;3.80;1.00
1011;DHT22;494;48.744;10.106;2024-03-08T01:29:57;3.90;1.00
1011;DHT22;494;48.744;10.106;2024-03-08T01:32:26;3.80;1.00
1011;DHT22;494;48.744;10.106;2024-03-08T01:34:55;3.90;1.00
1011;DHT22;494;48.744;10.106;2024-03-08T01:37:24;3.90;1.00
1011;DHT22;494;48.744;10.106;2024-03-08T01:39:54;3.90;1.00
1011;DHT22;494;48.744;10.106;2024-03-08T01:42:28;3.80;1.00
1011;DHT22;494;48.744;10.106;2024-03-08T01:44:56;3.90;1.00
1011;DHT22;494;48.744;10.106;2024-03-08T01:47:26;3.90;1.00
1011;DHT22;494;48.744;10.106;2024-03-08T01:49:55;4.10;1.00
1011;DHT22;494;48.744;10.106;2024-03-08T01:52:28;4.00;1.00
1011;DHT22;494;48.744;10.106;2024-03-08T01:55:02;3.90;1.00
1011;DHT22;494;48.744;10.106;2024-03-08T01:57:34;4.00;1.00
1011;DHT22;494;48.744;10.106;2024-03-08T02:00:06;4.00;1.00
1011;DHT22;494;48.744;10.106;2024-03-08T02:02:38;3.90;1.00
1011;DHT22;494;48.744;10.106;2024-03-08T02:05:10;4.00;1.00
1011;DHT22;494;48.744;10.106;2024-03-08T02:07:43;4.10;1.00
1011;DHT22;494;48.744;10.106;2024-03-08T02:10:13;3.90;1.00
1011;DHT22;494;48.744;10.106;2024-03-08T02:12:44;3.80;1.00
1011;DHT22;494;48.744;10.106;2024-03-08T02:15:14;3.80;1.00
1011;DHT22;494;48.744;10.106;2024-03-08T02:17:43;3.80;1.00
1011;DHT22;494;48.744;10.106;2024-03-08T02:23:34;3.90;1.00
1011;DHT22;494;48.744;10.106;2024-03-08T02:26:04;3.90;1.00
1011;DHT22;494;48.744;10.106;2024-03-08T02:28:35;3.80;1.00
1011;DHT22;494;48.744;10.106;2024-03-08T02:31:06;3.80;1.00
1011;DHT22;494;48.744;10.106;2024-03-08T02:33:36;3.90;1.00
1011;DHT22;494;48.744;10.106;2024-03-08T02:36:07;3.80;1.00
1011;DHT22;494;48.744;10.106;2024-03-08T02:38:42;3.80;1.00
1011;DHT22;494;48.744;10.106;2024-03-08T02:41:12;3.50;1.00
1011;DHT22;494;48.744;10.106;2024-03-08T02:43:48;3.60;1.00
1011;DHT22;494;48.744;10.106;2024-03-08T02:46:17;3.80;1.00
1011;DHT22;494;48.744;10.106;2024-03-08T02:49:00;3.90;1.00
1011;DHT22;494;48.744;10.106;2024-03-08T02:51:33;3.80;1.00
1011;DHT22;494;48.744;10.106;2024-03-08T02:54:05;4.10;1.00
1011;DHT22;494;48.744;10.106;2024-03-08T02:56:39;4.10;1.00
1011;DHT22;494;48.744;10.106;2024-03-08T02:59:32;4.00;1.00
1011;DHT22;494;48.744;10.106;2024-03-08T03:02:01;4.00;1.00
1011;DHT22;494;48.744;10.106;2024-03-08T03:04:29;3.90;1.00
1011;DHT22;494;48.744;10.106;2024-03-08T03:06:58;4.00;1.00
1011;DHT22;494;48.744;10.106;2024-03-08T03:09:28;3.90;1.00
1011;DHT22;494;48.744;10.106;2024-03-08T03:11:59;4.00;1.00
1011;DHT22;494;48.744;10.106;2024-03-08T03:14:29;4.20;1.00
1011;DHT22;494;48.744;10.106;2024-03-08T03:16:58;4.10;1.00
1011;DHT22;494;48.744;10.106;2024-03-08T03:19:27;4.20;1.00
1011;DHT22;494;48.744;10.106;2024-03-08T03:21:57;4.30;1.00
1011;DHT22;494;48.744;10.106;2024-03-08T03:24:26;4.40;1.00
1011;DHT22;494;48.744;10.106;2024-03-08T03:26:56;4.20;1.00
1011;DHT22;494;48.744;10.106;2024-03-08T03:29:26;4.20;1.00
1011;DHT22;494;48.744;10.106;2024-03-08T03:31:55;4.30;1.00
1011;DHT22;494;48.744;10.106;2024-03-08T03:34:24;4.30;1.00
1011;DHT22;494;48.744;10.106;2024-03-08T03:36:52;4.30;1.00
1011;DHT22;494;48.744;10.106;2024-03-08T03:39:25;4.20;1.00
1011;DHT22;494;48.744;10.106;2024-03-08T03:42:03;3.90;1.00
1011;DHT22;494;48.744;10.106;2024-03-08T03:44:32;4.10;1.00
1011;DHT22;494;48.744;10.106;2024-03-08T03:47:00;4.10;1.00
1011;DHT22;494;48.744;10.106;2024-03-08T03:49:29;4.20;1.00
1011;DHT22;494;48.744;10.106;2024-03-08T03:51:58;4.20;1.00
1011;DHT22;494;48.744;10.106;2024-03-08T03:54:27;4.40;1.00
1011;DHT22;494;48.744;10.106;2024-03-08T03:56:57;4.30;1.00
1011;DHT22;494;48.744;10.106;2024-03-08T03:59:27;4.10;1.00
1011;DHT22;494;48.744;10.106;2024-03-08T04:01:56;4.10;1.00
1011;DHT22;494;48.744;10.106;2024-03-08T04:04:26;4.10;1.00
1011;DHT22;494;48.744;10.106;2024-03-08T04:06:54;4.10;1.00
1011;DHT22;494;48.744;10.106;2024-03-08T04:09:23;4.20;1.00
1011;DHT22;494;48.744;10.106;2024-03-08T04:11:51;4.30;1.00
1011;DHT22;494;48.744;10.106;2024-03-08T04:14:23;4.30;1.00
1011;DHT22;494;48.744;10.106;2024-03-08T04:16:53;4.20;1.00
1011;DHT22;494;48.744;10.106;2024-03-08T04:19:22;4.10;1.00
1011;DHT22;494;48.744;10.106;2024-03-08T04:21:51;4.20;1.00
1011;DHT22;494;48.744;10.106;2024-03-08T04:24:20;4.00;1.00
1011;DHT22;494;48.744;10.106;2024-03-08T04:26:50;4.10;1.00
1011;DHT22;494;48.744;10.106;2024-03-08T04:29:20;4.20;1.00
1011;DHT22;494;48.744;10.106;2024-03-08T04:31:49;4.00;1.00
1011;DHT22;494;48.744;10.106;2024-03-08T04:34:22;3.90;1.00
1011;DHT22;494;48.744;10.106;2024-03-08T04:36:51;3.90;1.00
1011;DHT22;494;48.744;10.106;2024-03-08T04:39:22;4.00;1.00
1011;DHT22;494;48.744;10.106;2024-03-08T04:41:57;3.90;1.00
1011;DHT22;494;48.744;10.106;2024-03-08T04:44:32;3.90;1.00
1011;DHT22;494;48.744;10.106;2024-03-08T04:47:01;3.80;1.00
1011;DHT22;494;48.744;10.106;2024-03-08T04:49:32;4.00;1.00
1011;DHT22;494;48.744;10.106;2024-03-08T04:52:02;4.00;1.00
1011;DHT22;494;48.744;10.106;2024-03-08T04:54:31;4.00;1.00
1011;DHT22;494;48.744;10.106;2024-03-08T04:57:00;4.00;1.00
1011;DHT22;494;48.744;10.106;2024-03-08T04:59:33;4.00;1.00
1011;DHT22;494;48.744;10.106;2024-03-08T05:02:03;3.70;1.00
1011;DHT22;494;48.744;10.106;2024-03-08T05:04:35;3.80;1.00
1011;DHT22;494;48.744;10.106;2024-03-08T05:07:04;3.70;1.00
1011;DHT22;494;48.744;10.106;2024-03-08T05:09:32;3.70;1.00
1011;DHT22;494;48.744;10.106;2024-03-08T05:12:03;3.70;1.00
1011;DHT22;494;48.744;10.106;2024-03-08T05:14:32;3.60;1.00
1011;DHT22;494;48.744;10.106;2024-03-08T05:17:02;3.60;1.00
1011;DHT22;494;48.744;10.106;2024-03-08T05:19:36;3.70;1.00
1011;DHT22;494;48.744;10.106;2024-03-08T05:22:05;3.80;1.00
1011;DHT22;494;48.744;10.106;2024-03-08T05:24:33;3.80;1.00
1011;DHT22;494;48.744;10.106;2024-03-08T05:27:02;3.90;1.00
1011;DHT22;494;48.744;10.106;2024-03-08T05:29:31;3.70;1.00
1011;DHT22;494;48.744;10.106;2024-03-08T05:32:00;3.70;1.00
1011;DHT22;494;48.744;10.106;2024-03-08T05:34:30;3.70;1.00
1011;DHT22;494;48.744;10.106;2024-03-08T05:36:59;3.60;1.00
1011;DHT22;494;48.744;10.106;2024-03-08T05:39:28;3.60;1.00
1011;DHT22;494;48.744;10.106;2024-03-08T05:42:00;3.40;1.00
1011;DHT22;494;48.744;10.106;2024-03-08T05:44:29;3.50;1.00
1011;DHT22;494;48.744;10.106;2024-03-08T05:47:02;3.70;1.00
1011;DHT22;494;48.744;10.106;2024-03-08T05:49:31;3.60;1.00
1011;DHT22;494;48.744;10.106;2024-03-08T05:52:03;3.70;1.00
1011;DHT22;494;48.744;10.106;2024-03-08T05:54:31;3.50;1.00
1011;DHT22;494;48.744;10.106;2024-03-08T05:57:00;3.40;1.00
1011;DHT22;494;48.744;10.106;2024-03-08T05:59:33;3.60;1.00
1011;DHT22;494;48.744;10.106;2024-03-08T06:02:05;3.40;1.00
1011;DHT22;494;48.744;10.106;2024-03-08T06:04:34;3.40;1.00
1011;DHT22;494;48.744;10.106;2024-03-08T06:07:04;3.20;1.00
1011;DHT22;494;48.744;10.106;2024-03-08T06:09:33;3.30;1.00
1011;DHT22;494;48.744;10.106;2024-03-08T06:12:02;3.40;1.00
1011;DHT22;494;48.744;10.106;2024-03-08T06:14:33;3.20;1.00
1011;DHT22;494;48.744;10.106;2024-03-08T06:17:02;3.40;1.00
1011;DHT22;494;48.744;10.106;2024-03-08T06:19:32;3.20;1.00
1011;DHT22;494;48.744;10.106;2024-03-08T06:22:04;3.20;1.00
1011;DHT22;494;48.744;10.106;2024-03-08T06:24:33;3.20;1.00
1011;DHT22;494;48.744;10.106;2024-03-08T06:27:03;3.30;1.00
1011;DHT22;494;48.744;10.106;2024-03-08T06:29:33;3.40;1.00
1011;DHT22;494;48.744;10.106;2024-03-08T06:32:01;3.30;1.00
1011;DHT22;494;48.744;10.106;2024-03-08T06:34:32;3.20;1.00
1011;DHT22;494;48.744;10.106;2024-03-08T06:37:04;3.20;1.00
1011;DHT22;494;48.744;10.106;2024-03-08T06:39:32;3.40;1.00
1011;DHT22;494;48.744;10.106;2024-03-08T06:42:03;3.30;1.00
1011;DHT22;494;48.744;10.106;2024-03-08T06:44:32;3.50;1.00
1011;DHT22;494;48.744;10.106;2024-03-08T06:47:01;3.30;1.00
1011;DHT22;494;48.744;10.106;2024-03-08T06:49:30;3.40;1.00
1011;DHT22;494;48.744;10.106;2024-03-08T06:51:59;3.30;1.00
1011;DHT22;494;48.744;10.106;2024-03-08T06:54:29;3.50;1.00
1011;DHT22;494;48.744;10.106;2024-03-08T06:56:57;3.30;1.00
1011;DHT22;494;48.744;10.106;2024-03-08T06:59:27;3.30;1.00
1011;DHT22;494;48.744;10.106;2024-03-08T07:01:55;3.20;1.00
1011;DHT22;494;48.744;10.106;2024-03-08T07:04:26;3.40;1.00
1011;DHT22;494;48.744;10.106;2024-03-08T07:06:56;3.40;1.00
1011;DHT22;494;48.744;10.106;2024-03-08T07:09:25;3.60;1.00
1011;DHT22;494;48.744;10.106;2024-03-08T07:11:55;3.60;1.00
1011;DHT22;494;48.744;10.106;2024-03-08T07:14:24;3.60;1.00
1011;DHT22;494;48.744;10.106;2024-03-08T07:16:55;3.40;1.00
1011;DHT22;494;48.744;10.106;2024-03-08T07:19:26;3.50;1.00
1011;DHT22;494;48.744;10.106;2024-03-08T07:21:54;3.40;1.00
1011;DHT22;494;48.744;10.106;2024-03-08T07:24:23;3.40;1.00
1011;DHT22;494;48.744;10.106;2024-03-08T07:27:08;3.40;1.00
1011;DHT22;494;48.744;10.106;2024-03-08T07:29:37;3.50;1.00
1011;DHT22;494;48.744;10.106;2024-03-08T07:32:05;3.50;1.00
1011;DHT22;494;48.744;10.106;2024-03-08T07:34:48;3.50;1.00
1011;DHT22;494;48.744;10.106;2024-03-08T07:37:18;3.40;1.00
1011;DHT22;494;48.744;10.106;2024-03-08T07:39:47;3.50;1.00
1011;DHT22;494;48.744;10.106;2024-03-08T07:42:17;3.40;1.00
1011;DHT22;494;48.744;10.106;2024-03-08T07:44:46;3.60;1.00
1011;DHT22;494;48.744;10.106;2024-03-08T07:47:15;3.40;1.00
1011;DHT22;494;48.744;10.106;2024-03-08T07:49:53;3.60;1.00
1011;DHT22;494;48.744;10.106;2024-03-08T07:52:31;3.70;1.00
1011;DHT22;494;48.744;10.106;2024-03-08T07:55:00;3.60;1.00
1011;DHT22;494;48.744;10.106;2024-03-08T07:57:32;3.60;1.00
1011;DHT22;494;48.744;10.106;2024-03-08T08:00:01;3.70;1.00
1011;DHT22;494;48.744;10.106;2024-03-08T08:02:34;4.00;1.00
1011;DHT22;494;48.744;10.106;2024-03-08T08:05:06;4.20;1.00
1011;DHT22;494;48.744;10.106;2024-03-08T08:07:37;4.10;1.00
1011;DHT22;494;48.744;10.106;2024-03-08T08:10:06;4.20;1.00
1011;DHT22;494;48.744;10.106;2024-03-08T08:12:45;4.20;1.00
1011;DHT22;494;48.744;10.106;2024-03-08T08:15:14;4.20;1.00
1011;DHT22;494;48.744;10.106;2024-03-08T08:17:43;4.20;1.00
1011;DHT22;494;48.744;10.106;2024-03-08T08:20:12;4.30;1.00
1011;DHT22;494;48.744;10.106;2024-03-08T08:22:42;4.40;1.00
1011;DHT22;494;48.744;10.106;2024-03-08T08:25:11;4.50;1.00
1011;DHT22;494;48.744;10.106;2024-03-08T08:27:40;4.80;1.00
1011;DHT22;494;48.744;10.106;2024-03-08T08:30:12;4.60;1.00
1011;DHT22;494;48.744;10.106;2024-03-08T08:32:41;4.50;1.00
1011;DHT22;494;48.744;10.106;2024-03-08T08:35:09;4.50;1.00
1011;DHT22;494;48.744;10.106;2024-03-08T08:37:39;4.20;1.00
1011;DHT22;494;48.744;10.106;2024-03-08T08:40:08;4.30;1.00
1011;DHT22;494;48.744;10.106;2024-03-08T08:42:42;4.20;1.00
1011;DHT22;494;48.744;10.106;2024-03-08T08:45:17;4.20;1.00
1011;DHT22;494;48.744;10.106;2024-03-08T08:47:51;4.10;1.00
1011;DHT22;494;48.744;10.106;2024-03-08T08:50:22;4.40;1.00
1011;DHT22;494;48.744;10.106;2024-03-08T08:52:51;4.40;1.00
1011;DHT22;494;48.744;10.106;2024-03-08T08:55:21;4.40;1.00
1011;DHT22;494;48.744;10.106;2024-03-08T08:57:53;4.50;1.00
1011;DHT22;494;48.744;10.106;2024-03-08T09:00:25;4.60;1.00
1011;DHT22;494;48.744;10.106;2024-03-08T09:02:55;4.70;1.00
1011;DHT22;494;48.744;10.106;2024-03-08T09:05:25;4.70;1.00
1011;DHT22;494;48.744;10.106;2024-03-08T09:07:54;5.00;1.00
1011;DHT22;494;48.744;10.106;2024-03-08T09:10:23;4.80;1.00
1011;DHT22;494;48.744;10.106;2024-03-08T09:12:55;4.80;1.00
1011;DHT22;494;48.744;10.106;2024-03-08T09:15:25;4.80;1.00
1011;DHT22;494;48.744;10.106;2024-03-08T09:17:56;4.80;1.00
1011;DHT22;494;48.744;10.106;2024-03-08T09:20:26;4.90;1.00
1011;DHT22;494;48.744;10.106;2024-03-08T09:22:55;4.90;1.00
1011;DHT22;494;48.744;10.106;2024-03-08T09:25:25;5.00;1.00
1011;DHT22;494;48.744;10.106;2024-03-08T09:27:55;5.20;1.00
1011;DHT22;494;48.744;10.106;2024-03-08T09:30:25;5.20;1.00
1011;DHT22;494;48.744;10.106;2024-03-08T09:32:54;5.20;1.00
1011;DHT22;494;48.744;10.106;2024-03-08T09:35:25;5.50;1.00
1011;DHT22;494;48.744;10.106;2024-03-08T09:37:54;5.70;1.00
1011;DHT22;494;48.744;10.106;2024-03-08T09:40:22;5.90;1.00
1011;DHT22;494;48.744;10.106;2024-03-08T09:42:52;5.90;1.00
1011;DHT22;494;48.744;10.106;2024-03-08T09:45:22;5.70;1.00
1011;DHT22;494;48.744;10.106;2024-03-08T09:47:54;5.70;1.00
1011;DHT22;494;48.744;10.106;2024-03-08T09:50:24;5.90;1.00
1011;DHT22;494;48.744;10.106;2024-03-08T09:52:55;5.90;1.00
1011;DHT22;494;48.744;10.106;2024-03-08T09:55:26;5.90;1.00
1011;DHT22;494;48.744;10.106;2024-03-08T09:58:02;6.00;1.00
1011;DHT22;494;48.744;10.106;2024-03-08T10:01:05;6.20;1.00
1011;DHT22;494;48.744;10.106;2024-03-08T10:03:35;6.20;1.00
1011;DHT22;494;48.744;10.106;2024-03-08T10:06:04;6.40;1.00
1011;DHT22;494;48.744;10.106;2024-03-08T10:08:33;6.70;1.00
1011;DHT22;494;48.744;10.106;2024-03-08T10:11:02;6.80;1.00
1011;DHT22;494;48.744;10.106;2024-03-08T10:13:32;7.10;1.00
1011;DHT22;494;48.744;10.106;2024-03-08T10:16:00;7.70;1.00
1011;DHT22;494;48.744;10.106;2024-03-08T10:18:32;8.20;1.00
1011;DHT22;494;48.744;10.106;2024-03-08T10:21:06;8.10;1.00
1011;DHT22;494;48.744;10.106;2024-03-08T10:23:37;8.20;1.00
1011;DHT22;494;48.744;10.106;2024-03-08T10:26:10;8.20;1.00
1011;DHT22;494;48.744;10.106;2024-03-08T10:28:42;8.20;1.00
1011;DHT22;494;48.744;10.106;2024-03-08T10:31:12;8.10;1.00
1011;DHT22;494;48.744;10.106;2024-03-08T10:33:46;8.20;1.00
1011;DHT22;494;48.744;10.106;2024-03-08T10:36:16;8.00;1.00
1011;DHT22;494;48.744;10.106;2024-03-08T10:38:46;8.00;1.00
1011;DHT22;494;48.744;10.106;2024-03-08T10:41:16;8.20;1.00
1011;DHT22;494;48.744;10.106;2024-03-08T10:43:57;8.40;1.00
1011;DHT22;494;48.744;10.106;2024-03-08T10:46:49;8.60;1.00
1011;DHT22;494;48.744;10.106;2024-03-08T10:49:31;9.10;1.00
1011;DHT22;494;48.744;10.106;2024-03-08T10:52:04;9.10;1.00
1011;DHT22;494;48.744;10.106;2024-03-08T10:54:37;8.90;1.00
1011;DHT22;494;48.744;10.106;2024-03-08T10:57:12;8.80;1.00
1011;DHT22;494;48.744;10.106;2024-03-08T10:59:42;8.60;1.00
1011;DHT22;494;48.744;10.106;2024-03-08T11:02:12;8.60;1.00
1011;DHT22;494;48.744;10.106;2024-03-08T11:04:47;9.00;1.00
1011;DHT22;494;48.744;10.106;2024-03-08T11:07:17;9.40;1.00
1011;DHT22;494;48.744;10.106;2024-03-08T11:09:47;9.60;1.00
1011;DHT22;494;48.744;10.106;2024-03-08T11:12:21;10.00;1.00
1011;DHT22;494;48.744;10.106;2024-03-08T11:14:53;10.10;1.00
1011;DHT22;494;48.744;10.106;2024-03-08T11:17:26;10.30;1.00
1011;DHT22;494;48.744;10.106;2024-03-08T11:20:11;11.10;1.00
1011;DHT22;494;48.744;10.106;2024-03-08T11:22:49;12.50;1.00
1011;DHT22;494;48.744;10.106;2024-03-08T11:25:33;13.70;1.00
1011;DHT22;494;48.744;10.106;2024-03-08T11:28:14;14.20;1.00
1011;DHT22;494;48.744;10.106;2024-03-08T11:31:23;14.20;1.00
1011;DHT22;494;48.744;10.106;2024-03-08T11:33:54;14.40;1.00
1011;DHT22;494;48.744;10.106;2024-03-08T11:36:25;14.50;1.00
1011;DHT22;494;48.744;10.106;2024-03-08T11:38:54;14.60;1.00
1011;DHT22;494;48.744;10.106;2024-03-08T11:41:26;14.10;1.00
1011;DHT22;494;48.744;10.106;2024-03-08T11:44:03;13.50;1.00
1011;DHT22;494;48.744;10.106;2024-03-08T11:46:38;13.50;1.00
1011;DHT22;494;48.744;10.106;2024-03-08T11:49:12;13.90;1.00
1011;DHT22;494;48.744;10.106;2024-03-08T11:51:43;14.40;1.00
1011;DHT22;494;48.744;10.106;2024-03-08T11:54:13;14.90;1.00
1011;DHT22;494;48.744;10.106;2024-03-08T11:56:42;15.40;1.00
1011;DHT22;494;48.744;10.106;2024-03-08T11:59:11;16.20;1.00
1011;DHT22;494;48.744;10.106;2024-03-08T12:01:56;16.30;1.00
1011;DHT22;494;48.744;10.106;2024-03-08T12:04:30;16.40;1.00
1011;DHT22;494;48.744;10.106;2024-03-08T12:07:02;16.80;1.00
1011;DHT22;494;48.744;10.106;2024-03-08T12:09:40;17.30;1.00
1011;DHT22;494;48.744;10.106;2024-03-08T12:12:17;17.70;1.00
1011;DHT22;494;48.744;10.106;2024-03-08T12:14:46;18.40;1.00
1011;DHT22;494;48.744;10.106;2024-03-08T12:17:15;18.70;1.00
1011;DHT22;494;48.744;10.106;2024-03-08T12:19:46;19.10;1.00
1011;DHT22;494;48.744;10.106;2024-03-08T12:22:18;19.40;1.00
1011;DHT22;494;48.744;10.106;2024-03-08T12:25:03;19.70;1.00
1011;DHT22;494;48.744;10.106;2024-03-08T12:27:38;20.40;1.00
1011;DHT22;494;48.744;10.106;2024-03-08T12:30:21;20.90;1.00
1011;DHT22;494;48.744;10.106;2024-03-08T12:32:55;20.90;1.00
1011;DHT22;494;48.744;10.106;2024-03-08T12:35:27;20.40;1.00
1011;DHT22;494;48.744;10.106;2024-03-08T12:38:02;20.10;1.00
1011;DHT22;494;48.744;10.106;2024-03-08T12:40:32;20.10;1.00
1011;DHT22;494;48.744;10.106;2024-03-08T12:43:02;20.30;1.00
1011;DHT22;494;48.744;10.106;2024-03-08T12:45:30;20.20;1.00
1011;DHT22;494;48.744;10.106;2024-03-08T12:48:00;20.20;1.00
1011;DHT22;494;48.744;10.106;2024-03-08T12:50:30;20.10;1.00
1011;DHT22;494;48.744;10.106;2024-03-08T12:52:59;20.30;1.00
1011;DHT22;494;48.744;10.106;2024-03-08T12:55:36;20.20;1.00
1011;DHT22;494;48.744;10.106;2024-03-08T12:58:05;20.20;1.00
1011;DHT22;494;48.744;10.106;2024-03-08T13:00:35;20.40;1.00
1011;DHT22;494;48.744;10.106;2024-03-08T13:03:11;20.70;1.00
1011;DHT22;494;48.744;10.106;2024-03-08T13:05:39;21.20;1.00
1011;DHT22;494;48.744;10.106;2024-03-08T13:08:11;21.50;1.00
1011;DHT22;494;48.744;10.106;2024-03-08T13:10:42;21.40;1.00
1011;DHT22;494;48.744;10.106;2024-03-08T13:13:12;21.40;1.00
1011;DHT22;494;48.744;10.106;2024-03-08T13:15:44;21.00;1.00
1011;DHT22;494;48.744;10.106;2024-03-08T13:18:16;20.90;1.00
1011;DHT22;494;48.744;10.106;2024-03-08T13:20:45;20.80;1.00
1011;DHT22;494;48.744;10.106;2024-03-08T13:23:28;20.80;1.00
1011;DHT22;494;48.744;10.106;2024-03-08T13:25:58;21.00;1.00
1011;DHT22;494;48.744;10.106;2024-03-08T13:28:38;20.90;1.00
1011;DHT22;494;48.744;10.106;2024-03-08T13:31:11;20.70;1.00
1011;DHT22;494;48.744;10.106;2024-03-08T13:33:42;20.80;1.00
1011;DHT22;494;48.744;10.106;2024-03-08T13:36:14;20.80;1.00
1011;DHT22;494;48.744;10.106;2024-03-08T13:39:08;20.70;1.00
1011;DHT22;494;48.744;10.106;2024-03-08T13:41:45;20.90;1.00
1011;DHT22;494;48.744;10.106;2024-03-08T13:44:14;21.30;1.00
1011;DHT22;494;48.744;10.106;2024-03-08T13:46:46;21.50;1.00
1011;DHT22;494;48.744;10.106;2024-03-08T13:49:20;21.60;1.00
1011;DHT22;494;48.744;10.106;2024-03-08T13:51:49;21.50;1.00
1011;DHT22;494;48.744;10.106;2024-03-08T13:54:18;21.80;1.00
1011;DHT22;494;48.744;10.106;2024-03-08T13:56:48;22.40;1.00
1011;DHT22;494;48.744;10.106;2024-03-08T13:59:17;22.90;1.00
1011;DHT22;494;48.744;10.106;2024-03-08T14:01:45;23.20;1.00
1011;DHT22;494;48.744;10.106;2024-03-08T14:04:15;23.70;1.00
1011;DHT22;494;48.744;10.106;2024-03-08T14:06:45;24.30;1.00
1011;DHT22;494;48.744;10.106;2024-03-08T14:09:13;24.40;1.00
1011;DHT22;494;48.744;10.106;2024-03-08T14:11:45;24.20;1.00
1011;DHT22;494;48.744;10.106;2024-03-08T14:14:26;24.00;1.00
1011;DHT22;494;48.744;10.106;2024-03-08T14:16:55;24.00;1.00
1011;DHT22;494;48.744;10.106;2024-03-08T14:19:27;24.20;1.00
1011;DHT22;494;48.744;10.106;2024-03-08T14:21:59;24.80;1.00
1011;DHT22;494;48.744;10.106;2024-03-08T14:24:31;25.10;1.00
1011;DHT22;494;48.744;10.106;2024-03-08T14:27:05;25.10;1.00
1011;DHT22;494;48.744;10.106;2024-03-08T14:29:35;25.20;1.00
1011;DHT22;494;48.744;10.106;2024-03-08T14:32:06;24.60;1.00
1011;DHT22;494;48.744;10.106;2024-03-08T14:34:39;24.40;1.00
1011;DHT22;494;48.744;10.106;2024-03-08T14:37:08;24.80;1.00
1011;DHT22;494;48.744;10.106;2024-03-08T14:39:38;24.90;1.00
1011;DHT22;494;48.744;10.106;2024-03-08T14:42:09;24.90;1.00
1011;DHT22;494;48.744;10.106;2024-03-08T14:44:40;24.90;1.00
1011;DHT22;494;48.744;10.106;2024-03-08T14:47:10;24.80;1.00
1011;DHT22;494;48.744;10.106;2024-03-08T14:49:41;24.80;1.00
1011;DHT22;494;48.744;10.106;2024-03-08T14:52:10;24.30;1.00
1011;DHT22;494;48.744;10.106;2024-03-08T14:54:54;24.40;1.00
1011;DHT22;494;48.744;10.106;2024-03-08T14:57:27;24.50;1.00
1011;DHT22;494;48.744;10.106;2024-03-08T14:59:56;24.80;1.00
1011;DHT22;494;48.744;10.106;2024-03-08T15:02:30;24.80;1.00
1011;DHT22;494;48.744;10.106;2024-03-08T15:04:59;24.60;1.00
1011;DHT22;494;48.744;10.106;2024-03-08T15:07:28;24.40;1.00
1011;DHT22;494;48.744;10.106;2024-03-08T15:09:58;24.20;1.00
1011;DHT22;494;48.744;10.106;2024-03-08T15:12:28;23.90;1.00
1011;DHT22;494;48.744;10.106;2024-03-08T15:14:57;23.70;1.00
1011;DHT22;494;48.744;10.106;2024-03-08T15:17:26;23.30;1.00
1011;DHT22;494;48.744;10.106;2024-03-08T15:19:54;22.80;1.00
1011;DHT22;494;48.744;10.106;2024-03-08T15:22:23;22.50;1.00
1011;DHT22;494;48.744;10.106;2024-03-08T15:24:52;22.20;1.00
1011;DHT22;494;48.744;10.106;2024-03-08T15:27:20;22.00;1.00
1011;DHT22;494;48.744;10.106;2024-03-08T15:29:52;21.80;1.00
1011;DHT22;494;48.744;10.106;2024-03-08T15:32:22;21.50;1.00
1011;DHT22;494;48.744;10.106;2024-03-08T15:34:51;21.30;1.00
1011;DHT22;494;48.744;10.106;2024-03-08T15:37:21;21.10;1.00
1011;DHT22;494;48.744;10.106;2024-03-08T15:39:52;20.90;1.00
1011;DHT22;494;48.744;10.106;2024-03-08T15:42:21;20.50;1.00
1011;DHT22;494;48.744;10.106;2024-03-08T15:44:52;20.10;1.00
1011;DHT22;494;48.744;10.106;2024-03-08T15:47:25;20.10;1.00
1011;DHT22;494;48.744;10.106;2024-03-08T15:49:57;20.20;1.00
1011;DHT22;494;48.744;10.106;2024-03-08T15:52:30;20.20;1.00
1011;DHT22;494;48.744;10.106;2024-03-08T15:55:14;20.00;1.00
1011;DHT22;494;48.744;10.106;2024-03-08T15:58:06;19.70;1.00
1011;DHT22;494;48.744;10.106;2024-03-08T16:00:40;19.10;1.00
1011;DHT22;494;48.744;10.106;2024-03-08T16:03:14;18.70;1.00
1011;DHT22;494;48.744;10.106;2024-03-08T16:05:44;18.50;1.00
1011;DHT22;494;48.744;10.106;2024-03-08T16:08:16;18.10;1.00
1011;DHT22;494;48.744;10.106;2024-03-08T16:10:48;17.90;1.00
1011;DHT22;494;48.744;10.106;2024-03-08T16:13:18;17.20;1.00
1011;DHT22;494;48.744;10.106;2024-03-08T16:15:51;16.70;1.00
1011;DHT22;494;48.744;10.106;2024-03-08T16:18:22;16.10;1.00
1011;DHT22;494;48.744;10.106;2024-03-08T16:20:53;15.70;1.00
1011;DHT22;494;48.744;10.106;2024-03-08T16:23:24;15.40;1.00
1011;DHT22;494;48.744;10.106;2024-03-08T16:25:52;15.00;1.00
1011;DHT22;494;48.744;10.106;2024-03-08T16:28:21;14.50;1.00
1011;DHT22;494;48.744;10.106;2024-03-08T16:30:56;13.90;1.00
1011;DHT22;494;48.744;10.106;2024-03-08T16:33:25;13.50;1.00
1011;DHT22;494;48.744;10.106;2024-03-08T16:35:54;13.00;1.00
1011;DHT22;494;48.744;10.106;2024-03-08T16:38:23;12.60;1.00
1011;DHT22;494;48.744;10.106;2024-03-08T16:40:52;12.30;1.00
1011;DHT22;494;48.744;10.106;2024-03-08T16:43:22;12.00;1.00
1011;DHT22;494;48.744;10.106;2024-03-08T16:45:51;11.70;1.00
1011;DHT22;494;48.744;10.106;2024-03-08T16:48:22;11.50;1.00
1011;DHT22;494;48.744;10.106;2024-03-08T16:50:51;11.40;1.00
1011;DHT22;494;48.744;10.106;2024-03-08T16:53:21;11.20;1.00
1011;DHT22;494;48.744;10.106;2024-03-08T16:55:51;11.20;1.00
1011;DHT22;494;48.744;10.106;2024-03-08T16:58:20;11.10;1.00
1011;DHT22;494;48.744;10.106;2024-03-08T17:00:50;11.00;1.00